Terminal Aerodrome Forecast
Issued by NWS

Home | Current Version | Previous Version | Graphics & Text | Print | Product List | Glossary On
Versions: 1 2 3 4 5 6 7 8 9 10 11 12 13 14 15 16 17 18 19 20 21 22 23 24 25 26 27 28 29 30 31 32 33 34 35 36 37 38 39 40 41 42 43 44
000
FTUS43 KGRB 271500 AAB
TAFRHI
TAF AMD
KRHI 271501Z 2715/2812 34008KT P6SM VCSH SCT035 BKN080
      TEMPO 2715/2716 1SM -TSRA BKN020 OVC030CB
     FM271600 33012G19KT P6SM VCSH SCT015 BKN050
     FM271900 34012G16KT P6SM SCT050 BKN100
     FM272300 34009KT P6SM SKC=

USA.gov is the U.S. government's official web portal to all federal, state and local government web resources and services.